Time;durP1;ratioP1;P1;durP2;ratioP2;P2;SDS_P1;SDS_P2;PMS_P1;PMS_P2;Temp;Humidity;BMP_temperature;BMP_pressure;BME280_temperature;BME280_humidity;BME280_pressure;Samples;Min_cycle;Max_cycle;Signal;HPM_P1;HPM_P2
2021/09/05 00:01:17;;;;;;;15.68;11.52;;;;;;;;;;4772219;29;20398;-85
2021/09/05 00:03:43;;;;;;;16.27;11.52;;;;;;;;;;4765615;29;20060;-85
2021/09/05 00:06:08;;;;;;;15.00;11.57;;;;;;;;;;4789444;29;20109;-85
2021/09/05 00:08:34;;;;;;;15.02;11.85;;;;;;;;;;4771456;30;20039;-84
2021/09/05 00:10:59;;;;;;;14.35;10.80;;;;;;;;;;4788866;29;20046;-84
2021/09/05 00:13:25;;;;;;;16.40;11.20;;;;;;;;;;4777176;29;20107;-84
2021/09/05 00:15:50;;;;;;;15.30;11.40;;;;;;;;;;4805203;29;20486;-84
2021/09/05 00:18:15;;;;;;;16.75;11.55;;;;;;;;;;4771609;29;20122;-85
2021/09/05 00:20:41;;;;;;;15.35;10.77;;;;;;;;;;4802798;29;20109;-85
2021/09/05 00:23:08;;;;;;;14.00;11.13;;;;;;;;;;4799882;29;20068;-84
2021/09/05 00:25:33;;;;;;;16.77;11.38;;;;;;;;;;4774538;29;20045;-84
2021/09/05 00:27:59;;;;;;;16.00;11.38;;;;;;;;;;4786151;29;20027;-84
2021/09/05 00:30:26;;;;;;;15.73;11.55;;;;;;;;;;4776971;29;20042;-85
2021/09/05 00:32:51;;;;;;;18.10;11.32;;;;;;;;;;4780936;29;20061;-84
2021/09/05 00:35:17;;;;;;;17.13;11.23;;;;;;;;;;4774422;29;20055;-85
2021/09/05 00:37:42;;;;;;;14.85;11.32;;;;;;;;;;4773845;29;20062;-85
2021/09/05 00:40:08;;;;;;;17.98;11.73;;;;;;;;;;4787642;29;20112;-85
2021/09/05 00:42:34;;;;;;;16.65;11.32;;;;;;;;;;4789233;29;20030;-85
2021/09/05 00:45:00;;;;;;;15.35;11.50;;;;;;;;;;4802253;29;20539;-85
2021/09/05 00:47:25;;;;;;;17.50;10.85;;;;;;;;;;4785396;29;20430;-85
2021/09/05 00:49:51;;;;;;;16.75;11.55;;;;;;;;;;4786170;29;20092;-86
2021/09/05 00:52:18;;;;;;;16.52;11.00;;;;;;;;;;4800855;29;20027;-85
2021/09/05 00:54:45;;;;;;;16.63;11.88;;;;;;;;;;4785146;29;20039;-85
2021/09/05 00:57:11;;;;;;;15.30;11.52;;;;;;;;;;4789151;29;20039;-84
2021/09/05 00:59:41;;;;;;;15.80;11.32;;;;;;;;;;4804621;29;20031;-84
2021/09/05 01:02:07;;;;;;;15.23;11.30;;;;;;;;;;4803438;29;20035;-85
2021/09/05 01:04:33;;;;;;;16.95;11.95;;;;;;;;;;4801948;29;20100;-84
2021/09/05 01:06:59;;;;;;;16.40;10.98;;;;;;;;;;4780676;29;20550;-85
2021/09/05 01:09:25;;;;;;;15.80;10.77;;;;;;;;;;4783853;29;20094;-85
2021/09/05 01:11:51;;;;;;;15.13;11.10;;;;;;;;;;4787153;29;20483;-85
2021/09/05 01:14:18;;;;;;;18.08;11.75;;;;;;;;;;4799315;29;20043;-85
2021/09/05 01:16:43;;;;;;;16.25;10.82;;;;;;;;;;4783137;29;20540;-85
2021/09/05 01:19:10;;;;;;;16.80;11.15;;;;;;;;;;4787835;29;20039;-84
2021/09/05 01:21:36;;;;;;;16.85;11.43;;;;;;;;;;4801695;29;20079;-85
2021/09/05 01:24:03;;;;;;;14.88;11.00;;;;;;;;;;4789413;29;20058;-84
2021/09/05 01:26:31;;;;;;;17.65;11.65;;;;;;;;;;4800888;29;20134;-84
2021/09/05 01:28:57;;;;;;;18.85;11.30;;;;;;;;;;4759985;29;20106;-85
2021/09/05 01:31:26;;;;;;;16.08;11.23;;;;;;;;;;4803361;29;20038;-85
2021/09/05 01:33:52;;;;;;;16.52;11.15;;;;;;;;;;4782712;29;20039;-85
2021/09/05 01:36:17;;;;;;;15.60;11.48;;;;;;;;;;4800975;29;20161;-84
2021/09/05 01:38:43;;;;;;;15.13;11.00;;;;;;;;;;4782639;29;20043;-85
2021/09/05 01:41:08;;;;;;;17.55;10.80;;;;;;;;;;4786886;29;20035;-84
2021/09/05 01:43:34;;;;;;;15.07;11.43;;;;;;;;;;4754013;29;20043;-84
2021/09/05 01:45:59;;;;;;;18.00;11.25;;;;;;;;;;4800991;29;20034;-85
2021/09/05 01:48:25;;;;;;;22.15;12.20;;;;;;;;;;4768233;29;20100;-85
2021/09/05 01:50:50;;;;;;;16.45;11.48;;;;;;;;;;4782029;29;20047;-85
2021/09/05 01:53:16;;;;;;;19.95;11.32;;;;;;;;;;4771900;29;20039;-85
2021/09/05 01:55:41;;;;;;;14.85;10.88;;;;;;;;;;4800461;29;20508;-85
2021/09/05 01:58:07;;;;;;;17.42;11.65;;;;;;;;;;4790660;29;20042;-84
2021/09/05 02:00:32;;;;;;;15.45;11.05;;;;;;;;;;4787002;29;20039;-84
2021/09/05 02:02:58;;;;;;;16.90;11.30;;;;;;;;;;4775217;29;20114;-84
2021/09/05 02:05:23;;;;;;;18.27;11.65;;;;;;;;;;4769545;29;20483;-84
2021/09/05 02:07:49;;;;;;;16.17;10.82;;;;;;;;;;4800788;29;20155;-85
2021/09/05 02:10:14;;;;;;;17.13;10.82;;;;;;;;;;4771314;29;20529;-84
2021/09/05 02:12:39;;;;;;;17.58;11.07;;;;;;;;;;4787824;29;20114;-85
2021/09/05 02:15:06;;;;;;;16.48;11.50;;;;;;;;;;4767172;29;20039;-84
2021/09/05 02:17:31;;;;;;;17.52;11.38;;;;;;;;;;4770376;29;20125;-84
2021/09/05 02:19:57;;;;;;;18.92;11.18;;;;;;;;;;4786006;29;20065;-84
2021/09/05 02:22:22;;;;;;;18.63;10.98;;;;;;;;;;4786741;29;20495;-85
2021/09/05 02:24:48;;;;;;;18.75;11.13;;;;;;;;;;4791421;29;20053;-83
2021/09/05 02:27:13;;;;;;;15.90;11.10;;;;;;;;;;4792820;29;20459;-85
2021/09/05 02:29:38;;;;;;;16.83;11.25;;;;;;;;;;4778866;29;20035;-84
2021/09/05 02:32:04;;;;;;;16.02;10.70;;;;;;;;;;4771382;29;20062;-85
2021/09/05 02:34:30;;;;;;;16.77;11.05;;;;;;;;;;4756770;29;20078;-85
2021/09/05 02:36:56;;;;;;;16.08;10.85;;;;;;;;;;4777492;29;20045;-85
2021/09/05 02:39:21;;;;;;;19.73;11.75;;;;;;;;;;4791779;29;20027;-85
2021/09/05 02:41:47;;;;;;;18.27;11.57;;;;;;;;;;4806416;29;20045;-85
2021/09/05 02:44:12;;;;;;;18.65;11.40;;;;;;;;;;4772886;29;20066;-85
2021/09/05 02:46:38;;;;;;;18.35;11.05;;;;;;;;;;4773899;29;20034;-84
2021/09/05 02:49:03;;;;;;;18.45;10.93;;;;;;;;;;4802020;29;20042;-83
2021/09/05 02:51:29;;;;;;;19.85;10.90;;;;;;;;;;4786856;29;20035;-84
2021/09/05 02:53:54;;;;;;;19.65;11.15;;;;;;;;;;4787884;29;20035;-85
2021/09/05 02:56:20;;;;;;;17.50;10.73;;;;;;;;;;4793438;29;20039;-85
2021/09/05 02:58:45;;;;;;;19.88;11.75;;;;;;;;;;4775926;29;20031;-85
2021/09/05 03:01:11;;;;;;;16.85;10.55;;;;;;;;;;4790895;29;20031;-84
2021/09/05 03:03:36;;;;;;;18.95;10.98;;;;;;;;;;4790386;29;20045;-84
2021/09/05 03:06:02;;;;;;;16.00;10.23;;;;;;;;;;4790594;29;20026;-83
2021/09/05 03:08:27;;;;;;;17.73;11.07;;;;;;;;;;4790311;29;20030;-83
2021/09/05 03:10:53;;;;;;;17.08;10.98;;;;;;;;;;4776941;29;20042;-83
2021/09/05 03:13:18;;;;;;;19.17;11.20;;;;;;;;;;4790564;29;20092;-83
2021/09/05 03:15:43;;;;;;;17.15;10.70;;;;;;;;;;4757751;29;20129;-85
2021/09/05 03:18:09;;;;;;;19.08;10.15;;;;;;;;;;4777755;29;20551;-85
2021/09/05 03:20:34;;;;;;;18.17;11.23;;;;;;;;;;4777425;29;20035;-84
2021/09/05 03:23:00;;;;;;;19.75;11.15;;;;;;;;;;4811675;29;20030;-84
2021/09/05 03:25:25;;;;;;;16.65;10.55;;;;;;;;;;4785261;29;20039;-83
2021/09/05 03:27:51;;;;;;;18.13;11.05;;;;;;;;;;4787185;29;20035;-83
2021/09/05 03:30:16;;;;;;;15.85;10.70;;;;;;;;;;4787876;29;20038;-84
2021/09/05 03:32:42;;;;;;;16.50;10.38;;;;;;;;;;4775385;29;20054;-85
2021/09/05 03:35:08;;;;;;;17.63;10.35;;;;;;;;;;4769977;29;20062;-85
2021/09/05 03:37:34;;;;;;;15.15;9.82;;;;;;;;;;4788490;29;20039;-85
2021/09/05 03:39:59;;;;;;;15.93;10.27;;;;;;;;;;4753698;29;20476;-84
2021/09/05 03:42:25;;;;;;;18.55;10.45;;;;;;;;;;4773107;29;20035;-85
2021/09/05 03:44:50;;;;;;;19.50;10.10;;;;;;;;;;4787432;29;20080;-84
2021/09/05 03:47:16;;;;;;;18.77;10.43;;;;;;;;;;4803758;29;20037;-84
2021/09/05 03:49:41;;;;;;;16.67;10.13;;;;;;;;;;4784794;29;20038;-83
2021/09/05 03:52:07;;;;;;;20.70;10.10;;;;;;;;;;4789357;29;20035;-85
2021/09/05 03:54:32;;;;;;;16.77;10.13;;;;;;;;;;4789268;29;20038;-84
2021/09/05 03:56:57;;;;;;;18.30;10.60;;;;;;;;;;4790708;29;20039;-85
2021/09/05 03:59:23;;;;;;;18.40;10.75;;;;;;;;;;4790092;29;20084;-84
2021/09/05 04:01:48;;;;;;;16.45;9.98;;;;;;;;;;4807222;29;20049;-84
2021/09/05 04:04:14;;;;;;;17.13;11.02;;;;;;;;;;4788562;29;20117;-85
2021/09/05 04:06:39;;;;;;;20.98;10.60;;;;;;;;;;4801418;29;20134;-84
2021/09/05 04:10:08;;;;;;;18.23;11.05;;;;;;;;;;4801922;29;20039;-85
2021/09/05 04:11:56;;;;;;;14.95;9.55;;;;;;;;;;4774715;29;20058;-83
2021/09/05 04:14:21;;;;;;;17.58;10.82;;;;;;;;;;4801721;29;20567;-85
2021/09/05 04:16:47;;;;;;;18.95;10.77;;;;;;;;;;4785669;29;20140;-84
2021/09/05 04:19:12;;;;;;;17.52;10.35;;;;;;;;;;4771669;29;20065;-85
2021/09/05 04:21:37;;;;;;;18.13;10.35;;;;;;;;;;4772703;29;20491;-84
2021/09/05 04:24:03;;;;;;;19.70;10.93;;;;;;;;;;4775034;29;20034;-84
2021/09/05 04:26:28;;;;;;;20.15;10.38;;;;;;;;;;4804836;29;20039;-85
2021/09/05 04:28:54;;;;;;;19.08;11.07;;;;;;;;;;4803258;29;20418;-84
2021/09/05 04:31:19;;;;;;;18.10;11.07;;;;;;;;;;4785143;29;20030;-84
2021/09/05 04:33:45;;;;;;;18.13;10.43;;;;;;;;;;4790496;29;20062;-83
2021/09/05 04:36:10;;;;;;;18.48;10.45;;;;;;;;;;4753092;29;20146;-83
2021/09/05 04:38:35;;;;;;;15.90;10.70;;;;;;;;;;4771724;29;20035;-83
2021/09/05 04:41:01;;;;;;;20.90;10.77;;;;;;;;;;4773186;29;20039;-83
2021/09/05 04:43:26;;;;;;;17.80;10.18;;;;;;;;;;4774098;29;20095;-83
2021/09/05 04:45:52;;;;;;;17.08;10.48;;;;;;;;;;4792656;29;20042;-84
2021/09/05 04:48:17;;;;;;;20.23;9.85;;;;;;;;;;4777632;29;20522;-83
2021/09/05 04:50:43;;;;;;;20.08;10.55;;;;;;;;;;4764297;29;20054;-84
2021/09/05 04:53:08;;;;;;;17.20;10.90;;;;;;;;;;4774176;29;20039;-84
2021/09/05 04:55:33;;;;;;;17.45;10.25;;;;;;;;;;4785031;29;20506;-84
2021/09/05 04:57:59;;;;;;;17.60;10.25;;;;;;;;;;4776981;29;20038;-84
2021/09/05 05:00:24;;;;;;;18.75;10.95;;;;;;;;;;4787774;29;20506;-84
2021/09/05 05:02:50;;;;;;;17.65;9.82;;;;;;;;;;4772172;29;20042;-85
2021/09/05 05:05:15;;;;;;;24.58;10.52;;;;;;;;;;4784174;29;20075;-85
2021/09/05 05:07:40;;;;;;;21.17;10.25;;;;;;;;;;4772610;29;20110;-84
2021/09/05 05:10:06;;;;;;;19.42;10.75;;;;;;;;;;4794996;29;20070;-85
2021/09/05 05:12:32;;;;;;;19.73;10.13;;;;;;;;;;4786140;29;20342;-85
2021/09/05 05:14:57;;;;;;;18.08;9.93;;;;;;;;;;4753082;29;20035;-83
2021/09/05 05:17:23;;;;;;;16.23;9.23;;;;;;;;;;4785742;29;20035;-84
2021/09/05 05:19:48;;;;;;;17.98;10.00;;;;;;;;;;4774534;29;20042;-83
2021/09/05 05:22:13;;;;;;;15.73;9.38;;;;;;;;;;4788941;29;20039;-84
2021/09/05 05:24:39;;;;;;;16.38;9.75;;;;;;;;;;4773803;29;20035;-84
2021/09/05 05:27:04;;;;;;;17.90;9.95;;;;;;;;;;4787432;29;20027;-84
2021/09/05 05:29:30;;;;;;;16.35;9.93;;;;;;;;;;4787347;29;20031;-84
2021/09/05 05:31:55;;;;;;;19.15;10.27;;;;;;;;;;4772081;30;20114;-84
2021/09/05 05:34:20;;;;;;;17.52;10.07;;;;;;;;;;4784964;29;20116;-83
2021/09/05 05:36:46;;;;;;;16.08;10.13;;;;;;;;;;4785595;29;20423;-84
2021/09/05 05:39:11;;;;;;;19.08;9.70;;;;;;;;;;4774309;29;20126;-84
2021/09/05 05:41:37;;;;;;;17.90;9.30;;;;;;;;;;4770775;29;20078;-85
2021/09/05 05:44:02;;;;;;;16.95;10.00;;;;;;;;;;4771717;29;20039;-84
2021/09/05 05:46:28;;;;;;;17.38;9.73;;;;;;;;;;4755973;29;20396;-83
2021/09/05 05:48:53;;;;;;;16.67;9.52;;;;;;;;;;4771821;29;20042;-85
2021/09/05 05:51:19;;;;;;;16.75;9.73;;;;;;;;;;4770498;29;20034;-84
2021/09/05 05:53:44;;;;;;;16.67;9.93;;;;;;;;;;4761180;29;20161;-84
2021/09/05 05:56:09;;;;;;;18.25;9.88;;;;;;;;;;4785082;29;20038;-83
2021/09/05 05:58:35;;;;;;;18.27;9.77;;;;;;;;;;4785508;29;20035;-84
2021/09/05 06:01:00;;;;;;;18.25;10.07;;;;;;;;;;4773507;29;20039;-84
2021/09/05 06:03:25;;;;;;;17.27;9.98;;;;;;;;;;4805460;29;20113;-84
2021/09/05 06:05:51;;;;;;;18.33;10.13;;;;;;;;;;4773566;29;20398;-84
2021/09/05 06:08:17;;;;;;;19.77;10.48;;;;;;;;;;4806555;29;20031;-84
2021/09/05 06:10:42;;;;;;;18.80;10.65;;;;;;;;;;4789704;29;20042;-84
2021/09/05 06:13:07;;;;;;;16.45;10.02;;;;;;;;;;4795526;29;20054;-84
2021/09/05 06:15:33;;;;;;;17.25;9.65;;;;;;;;;;4794390;29;20050;-83
2021/09/05 06:17:58;;;;;;;16.77;9.35;;;;;;;;;;4794299;29;20031;-84
2021/09/05 06:20:24;;;;;;;16.92;9.55;;;;;;;;;;4787987;29;20043;-84
2021/09/05 06:22:50;;;;;;;19.05;10.35;;;;;;;;;;4775029;29;20054;-84
2021/09/05 06:25:16;;;;;;;18.60;10.23;;;;;;;;;;4779859;29;20027;-85
2021/09/05 06:27:41;;;;;;;18.65;10.13;;;;;;;;;;4809921;29;20522;-84
2021/09/05 06:30:07;;;;;;;17.23;9.02;;;;;;;;;;4803106;29;20039;-84
2021/09/05 06:32:33;;;;;;;18.02;9.98;;;;;;;;;;4776577;29;20460;-83
2021/09/05 06:34:58;;;;;;;16.38;9.35;;;;;;;;;;4801105;29;20084;-84
2021/09/05 06:37:24;;;;;;;16.27;10.00;;;;;;;;;;4793912;29;20058;-84
2021/09/05 06:39:51;;;;;;;16.55;9.85;;;;;;;;;;4807521;29;20039;-84
2021/09/05 06:42:16;;;;;;;16.13;9.85;;;;;;;;;;4789094;29;20506;-84
2021/09/05 06:44:41;;;;;;;20.30;10.13;;;;;;;;;;4762965;29;20121;-83
2021/09/05 06:47:12;;;;;;;14.98;9.38;;;;;;;;;;4804162;29;20031;-84
2021/09/05 06:49:41;;;;;;;18.52;10.02;;;;;;;;;;4777767;29;20038;-84
2021/09/05 06:52:14;;;;;;;16.67;9.70;;;;;;;;;;4779485;29;20100;-84
2021/09/05 06:54:43;;;;;;;;;;;;;;;;;;4798423;29;20029;-84
2021/09/05 06:57:12;;;;;;;19.02;8.98;;;;;;;;;;4818644;29;20439;-84
2021/09/05 06:59:43;;;;;;;16.25;9.40;;;;;;;;;;4787297;29;20043;-84
2021/09/05 07:02:17;;;;;;;15.68;9.48;;;;;;;;;;4759259;29;20035;-84
2021/09/05 07:04:46;;;;;;;17.52;9.70;;;;;;;;;;4769571;29;20031;-84
2021/09/05 07:07:14;;;;;;;18.60;9.77;;;;;;;;;;4790800;29;20087;-84
2021/09/05 07:09:46;;;;;;;17.50;9.48;;;;;;;;;;4790753;29;20106;-83
2021/09/05 07:12:14;;;;;;;17.10;10.10;;;;;;;;;;4799619;29;20274;-83
2021/09/05 07:14:45;;;;;;;16.55;9.77;;;;;;;;;;4791701;29;20031;-84
2021/09/05 07:17:16;;;;;;;16.55;9.25;;;;;;;;;;4764914;29;20035;-83
2021/09/05 07:19:42;;;;;;;18.58;9.45;;;;;;;;;;4787139;29;20035;-84
2021/09/05 07:22:19;;;;;;;19.83;9.13;;;;;;;;;;4780199;29;20062;-84
2021/09/05 07:24:48;;;;;;;16.50;9.85;;;;;;;;;;4809095;29;20086;-83
2021/09/05 07:27:19;;;;;;;17.67;9.98;;;;;;;;;;4779763;29;20034;-84
2021/09/05 07:29:48;;;;;;;14.95;9.25;;;;;;;;;;4783979;29;20039;-83
2021/09/05 07:32:22;;;;;;;15.23;9.15;;;;;;;;;;4775459;29;20043;-85
2021/09/05 07:34:48;;;;;;;19.30;9.77;;;;;;;;;;4810351;29;20066;-84
2021/09/05 07:37:14;;;;;;;16.17;9.13;;;;;;;;;;4758639;30;20056;-84
2021/09/05 07:39:52;;;;;;;17.48;9.15;;;;;;;;;;4765403;29;20459;-83
2021/09/05 07:42:19;;;;;;;16.13;9.07;;;;;;;;;;4760226;30;20043;-84
2021/09/05 07:44:51;;;;;;;17.80;9.52;;;;;;;;;;4762351;30;20046;-83
2021/09/05 07:47:22;;;;;;;16.35;9.02;;;;;;;;;;4758824;30;20053;-85
2021/09/05 07:49:51;;;;;;;17.60;10.02;;;;;;;;;;4750335;30;20035;-85
2021/09/05 07:52:22;;;;;;;15.13;9.15;;;;;;;;;;4770727;30;20433;-85
2021/09/05 07:54:56;;;;;;;17.17;9.90;;;;;;;;;;4763234;30;20514;-85
2021/09/05 07:57:21;;;;;;;14.90;8.85;;;;;;;;;;4777705;30;20051;-85
2021/09/05 07:59:53;;;;;;;15.70;9.40;;;;;;;;;;4780777;30;20051;-84
2021/09/05 08:02:23;;;;;;;14.25;9.07;;;;;;;;;;4770267;30;20038;-83
2021/09/05 08:04:53;;;;;;;14.30;8.68;;;;;;;;;;4746015;30;20035;-84
2021/09/05 08:07:22;;;;;;;15.13;9.23;;;;;;;;;;4774396;30;20134;-84
2021/09/05 08:09:53;;;;;;;14.30;9.40;;;;;;;;;;4759657;29;20038;-83
2021/09/05 08:12:26;;;;;;;16.58;9.10;;;;;;;;;;4762829;30;20084;-84
2021/09/05 08:14:56;;;;;;;17.80;9.73;;;;;;;;;;4777318;30;20113;-85
2021/09/05 08:17:21;;;;;;;18.13;9.68;;;;;;;;;;4740904;30;20054;-84
2021/09/05 08:19:57;;;;;;;14.25;9.10;;;;;;;;;;4764595;29;20039;-84
2021/09/05 08:22:26;;;;;;;16.88;9.35;;;;;;;;;;4788891;29;20032;-83
2021/09/05 08:24:58;;;;;;;17.15;9.60;;;;;;;;;;4756516;30;20112;-84
2021/09/05 08:27:27;;;;;;;14.30;9.07;;;;;;;;;;4769827;30;20036;-84
2021/09/05 08:29:57;;;;;;;15.80;9.43;;;;;;;;;;4789279;29;20126;-85
2021/09/05 08:35:01;;;;;;;18.45;10.15;;;;;;;;;;4836032;24;20078;-83
2021/09/05 08:37:30;;;;;;;16.38;9.52;;;;;;;;;;4783483;29;20045;-85
2021/09/05 08:39:59;;;;;;;17.00;9.48;;;;;;;;;;4803635;29;20057;-85
2021/09/05 08:42:32;;;;;;;16.83;9.13;;;;;;;;;;4800688;29;20399;-85
2021/09/05 08:45:03;;;;;;;13.90;9.02;;;;;;;;;;4801541;29;20072;-85
2021/09/05 08:47:43;;;;;;;;;;;;;;;;;;;;;
2021/09/05 08:50:32;;;;;;;17.08;8.98;;;;;;;;;;4786499;29;20056;-84
2021/09/05 08:53:01;;;;;;;15.13;8.43;;;;;;;;;;4791293;29;20026;-85
2021/09/05 08:56:06;;;;;;;;;;;;;;;;;;;;;
2021/09/05 08:58:36;;;;;;;15.90;8.75;;;;;;;;;;4721522;30;20060;-85
2021/09/05 09:01:33;;;;;;;15.35;9.00;;;;;;;;;;4719120;30;20059;-85
2021/09/05 09:07:35;;;;;;;14.30;8.88;;;;;;;;;;4723107;30;20040;-85
2021/09/05 09:10:06;;;;;;;13.10;8.18;;;;;;;;;;4734477;30;20681;-84
2021/09/05 09:13:06;;;;;;;14.68;7.90;;;;;;;;;;4735838;30;20658;-84
2021/09/05 09:15:34;;;;;;;15.35;8.30;;;;;;;;;;4735008;30;20052;-85
2021/09/05 09:18:05;;;;;;;13.15;8.27;;;;;;;;;;4723121;30;20047;-85
2021/09/05 09:20:43;;;;;;;13.80;7.70;;;;;;;;;;4720689;30;20199;-86
2021/09/05 09:23:37;;;;;;;17.88;8.63;;;;;;;;;;4721271;30;20497;-84
2021/09/05 09:26:37;;;;;;;15.00;8.07;;;;;;;;;;4724744;30;20101;-86
2021/09/05 09:29:39;;;;;;;13.73;8.25;;;;;;;;;;4696628;30;20529;-85
2021/09/05 09:40:08;;;;;;;13.48;8.07;;;;;;;;;;4819508;29;20801;-85
2021/09/05 09:42:40;;;;;;;12.55;7.47;;;;;;;;;;4741607;30;20524;-85
2021/09/05 09:45:41;;;;;;;19.20;8.45;;;;;;;;;;4737351;29;20046;-85
2021/09/05 09:48:40;;;;;;;16.10;7.68;;;;;;;;;;4797950;29;20046;-85
2021/09/05 09:51:13;;;;;;;13.90;7.82;;;;;;;;;;4759526;29;20046;-84
2021/09/05 09:53:42;;;;;;;13.93;8.60;;;;;;;;;;4818304;29;20042;-85
2021/09/05 09:56:20;;;;;;;12.75;8.05;;;;;;;;;;4798326;29;20038;-85
2021/09/05 09:59:12;;;;;;;14.70;8.20;;;;;;;;;;4783755;29;20050;-84
2021/09/05 10:01:43;;;;;;;15.40;7.72;;;;;;;;;;4746571;30;20082;-85
2021/09/05 10:04:15;;;;;;;13.77;7.90;;;;;;;;;;4739349;30;20064;-84
2021/09/05 10:06:46;;;;;;;12.70;7.22;;;;;;;;;;4774123;29;20043;-85
2021/09/05 10:09:43;;;;;;;13.90;7.07;;;;;;;;;;4805608;29;20053;-85
2021/09/05 10:12:16;;;;;;;13.65;7.07;;;;;;;;;;4801836;29;20031;-86
2021/09/05 10:14:59;;;;;;;;;;;;;;;;;;;;;
2021/09/05 10:18:19;;;;;;;;;;;;;;;;;;4772588;29;19931;-85
2021/09/05 10:20:47;;;;;;;13.65;7.10;;;;;;;;;;4816858;29;20452;-85
2021/09/05 10:27:15;;;;;;;13.98;7.30;;;;;;;;;;4807413;29;20130;-85
2021/09/05 10:30:20;;;;;;;10.88;7.10;;;;;;;;;;4816489;29;20123;-85
2021/09/05 10:33:16;;;;;;;13.00;7.68;;;;;;;;;;4797021;29;20060;-84
2021/09/05 10:35:50;;;;;;;14.55;7.25;;;;;;;;;;4795877;29;20088;-85
2021/09/05 10:38:25;;;;;;;11.88;7.10;;;;;;;;;;4792347;29;20561;-85
2021/09/05 10:41:18;;;;;;;15.05;8.02;;;;;;;;;;4773738;29;20114;-86
2021/09/05 10:43:50;;;;;;;13.60;7.85;;;;;;;;;;4814129;29;20491;-84
2021/09/05 10:46:49;;;;;;;14.27;7.13;;;;;;;;;;4801349;29;20038;-86
2021/09/05 10:49:49;;;;;;;12.73;7.22;;;;;;;;;;4815329;29;20474;-84
2021/09/05 10:52:52;;;;;;;10.90;7.40;;;;;;;;;;4792190;29;20103;-85
2021/09/05 10:55:51;;;;;;;13.57;7.53;;;;;;;;;;4787798;29;20861;-85
2021/09/05 10:58:54;;;;;;;14.93;7.28;;;;;;;;;;4775628;29;20070;-85
2021/09/05 11:01:25;;;;;;;12.38;7.25;;;;;;;;;;4786407;29;20086;-85
2021/09/05 11:04:24;;;;;;;11.65;6.95;;;;;;;;;;4801235;29;20042;-86
2021/09/05 11:07:03;;;;;;;;;;;;;;;;;;;;;
2021/09/05 11:09:54;;;;;;;13.60;7.07;;;;;;;;;;4754548;30;20047;-86
2021/09/05 11:12:57;;;;;;;12.75;7.15;;;;;;;;;;4749191;30;20113;-85
2021/09/05 11:15:25;;;;;;;16.23;7.72;;;;;;;;;;4745589;30;20108;-85
2021/09/05 11:17:57;;;;;;;12.25;6.80;;;;;;;;;;4752909;30;20056;-85
2021/09/05 11:20:26;;;;;;;12.70;7.13;;;;;;;;;;4739968;30;20056;-85
2021/09/05 11:22:55;;;;;;;14.73;7.30;;;;;;;;;;4747761;30;20028;-85
2021/09/05 11:25:22;;;;;;;11.55;6.95;;;;;;;;;;4788810;29;20421;-85
2021/09/05 11:27:48;;;;;;;13.32;7.30;;;;;;;;;;4789674;29;20435;-85
2021/09/05 11:30:15;;;;;;;12.02;7.43;;;;;;;;;;4791182;29;20038;-85
2021/09/05 11:32:40;;;;;;;15.52;7.35;;;;;;;;;;4769674;29;20046;-86
2021/09/05 11:35:08;;;;;;;12.10;7.53;;;;;;;;;;4776344;29;20058;-85
2021/09/05 11:37:36;;;;;;;11.15;6.93;;;;;;;;;;4787862;29;20034;-85
2021/09/05 11:40:19;;;;;;;12.02;6.75;;;;;;;;;;4789503;29;20474;-85
2021/09/05 11:42:55;;;;;;;13.40;8.00;;;;;;;;;;4778604;29;20034;-86
2021/09/05 11:45:25;;;;;;;13.02;7.45;;;;;;;;;;4770820;29;20046;-86
2021/09/05 11:48:01;;;;;;;16.83;7.97;;;;;;;;;;4777679;29;20039;-86
2021/09/05 11:50:28;;;;;;;14.02;8.10;;;;;;;;;;4775663;29;20061;-85
2021/09/05 11:52:54;;;;;;;12.25;7.45;;;;;;;;;;4804286;29;20249;-85
2021/09/05 11:55:20;;;;;;;14.18;8.30;;;;;;;;;;4780458;29;20129;-86
2021/09/05 11:57:58;;;;;;;12.20;7.82;;;;;;;;;;4766405;29;20053;-85
2021/09/05 12:00:43;;;;;;;11.73;7.80;;;;;;;;;;4806268;29;20030;-85
2021/09/05 12:03:13;;;;;;;11.20;7.25;;;;;;;;;;4807067;29;20055;-85
2021/09/05 12:05:40;;;;;;;14.15;8.65;;;;;;;;;;4789737;29;20070;-85
2021/09/05 12:08:06;;;;;;;12.35;7.75;;;;;;;;;;4804824;29;20125;-86
2021/09/05 12:10:33;;;;;;;13.02;7.78;;;;;;;;;;4800428;29;20038;-85
2021/09/05 12:13:06;;;;;;;14.45;8.00;;;;;;;;;;4779170;29;20483;-85
2021/09/05 12:15:51;;;;;;;12.75;7.25;;;;;;;;;;4823782;29;20394;-85
2021/09/05 12:18:25;;;;;;;15.93;7.47;;;;;;;;;;4800397;29;20030;-85
2021/09/05 12:20:56;;;;;;;14.77;8.20;;;;;;;;;;4814259;29;20125;-85
2021/09/05 12:23:26;;;;;;;12.80;7.47;;;;;;;;;;4818370;29;20155;-85
2021/09/05 12:25:54;;;;;;;14.27;8.23;;;;;;;;;;4807067;29;20033;-85
2021/09/05 12:28:21;;;;;;;12.88;8.15;;;;;;;;;;4806694;29;20034;-85
2021/09/05 12:30:56;;;;;;;13.63;8.38;;;;;;;;;;4805578;29;20054;-85
2021/09/05 12:33:28;;;;;;;12.80;8.13;;;;;;;;;;4806373;29;20250;-85
2021/09/05 12:36:14;;;;;;;12.00;7.88;;;;;;;;;;4807076;29;20522;-85
2021/09/05 12:38:49;;;;;;;14.05;8.60;;;;;;;;;;4808816;29;20072;-86
2021/09/05 12:41:15;;;;;;;13.73;8.13;;;;;;;;;;4807587;29;20034;-85
2021/09/05 12:43:57;;;;;;;10.65;7.72;;;;;;;;;;4811416;29;20034;-86
2021/09/05 12:46:42;;;;;;;12.35;8.18;;;;;;;;;;4803211;29;20031;-86
2021/09/05 12:49:19;;;;;;;14.85;8.38;;;;;;;;;;4809038;29;20486;-85
2021/09/05 12:51:55;;;;;;;12.25;7.38;;;;;;;;;;4822327;29;20038;-85
2021/09/05 12:54:23;;;;;;;12.93;8.35;;;;;;;;;;4799809;29;20214;-85
2021/09/05 12:56:49;;;;;;;11.43;7.53;;;;;;;;;;4797178;29;20034;-86
2021/09/05 12:59:15;;;;;;;13.60;8.30;;;;;;;;;;4787522;29;20034;-85
2021/09/05 13:01:41;;;;;;;14.20;7.57;;;;;;;;;;4785632;29;20030;-85
2021/09/05 13:04:07;;;;;;;13.05;8.18;;;;;;;;;;4807148;29;20034;-86
2021/09/05 13:06:33;;;;;;;13.45;8.57;;;;;;;;;;4808369;29;20056;-86
2021/09/05 13:08:59;;;;;;;11.65;7.75;;;;;;;;;;4807275;29;20047;-86
2021/09/05 13:11:27;;;;;;;16.38;8.70;;;;;;;;;;4806979;29;20432;-85
2021/09/05 13:13:54;;;;;;;15.20;8.05;;;;;;;;;;4823203;29;20022;-85
2021/09/05 13:16:20;;;;;;;13.48;7.57;;;;;;;;;;4785779;29;20490;-86
2021/09/05 13:18:45;;;;;;;17.92;8.80;;;;;;;;;;4791411;29;20041;-86
2021/09/05 13:21:15;;;;;;;11.45;7.93;;;;;;;;;;4788682;29;20034;-85
2021/09/05 13:23:43;;;;;;;11.38;8.35;;;;;;;;;;4792995;29;20057;-85
2021/09/05 13:26:11;;;;;;;13.18;8.15;;;;;;;;;;4805746;29;20100;-85
2021/09/05 13:28:37;;;;;;;12.77;8.10;;;;;;;;;;4785240;29;20079;-85
2021/09/05 13:31:03;;;;;;;11.85;7.88;;;;;;;;;;4823999;29;20035;-85
2021/09/05 13:33:28;;;;;;;11.13;8.02;;;;;;;;;;4806206;29;20516;-85
2021/09/05 13:35:54;;;;;;;14.02;8.60;;;;;;;;;;4829418;29;20050;-85
2021/09/05 13:38:20;;;;;;;12.55;7.60;;;;;;;;;;4799399;29;20035;-85
2021/09/05 13:40:46;;;;;;;15.35;7.85;;;;;;;;;;4783063;29;20045;-85
2021/09/05 13:43:11;;;;;;;12.93;8.07;;;;;;;;;;4791035;29;20037;-85
2021/09/05 13:45:36;;;;;;;13.85;7.72;;;;;;;;;;4829744;29;20141;-86
2021/09/05 13:48:02;;;;;;;12.18;8.32;;;;;;;;;;4771758;29;20066;-85
2021/09/05 13:50:27;;;;;;;12.88;8.52;;;;;;;;;;4782030;29;20102;-85
2021/09/05 13:52:53;;;;;;;13.18;8.75;;;;;;;;;;4822850;29;20031;-85
2021/09/05 13:55:18;;;;;;;13.75;8.50;;;;;;;;;;4786790;29;20983;-86
2021/09/05 13:57:44;;;;;;;15.60;8.38;;;;;;;;;;4801729;29;20039;-85
2021/09/05 14:00:10;;;;;;;12.02;8.10;;;;;;;;;;4781599;29;20133;-85
2021/09/05 14:02:35;;;;;;;12.60;8.35;;;;;;;;;;4776144;29;20068;-84
2021/09/05 14:05:01;;;;;;;13.38;9.27;;;;;;;;;;4789729;29;20035;-85
2021/09/05 14:07:26;;;;;;;12.20;7.88;;;;;;;;;;4773089;29;20390;-84
2021/09/05 14:09:52;;;;;;;12.13;8.05;;;;;;;;;;4779489;29;20545;-85
2021/09/05 14:12:17;;;;;;;11.70;7.93;;;;;;;;;;4769646;29;20035;-84
2021/09/05 14:14:43;;;;;;;13.10;8.52;;;;;;;;;;4776586;29;20042;-85
2021/09/05 14:17:09;;;;;;;14.30;8.48;;;;;;;;;;4775779;29;20095;-85
2021/09/05 14:19:37;;;;;;;13.75;8.85;;;;;;;;;;4803693;29;20038;-85
2021/09/05 14:22:03;;;;;;;14.20;8.77;;;;;;;;;;4804098;29;20046;-86
2021/09/05 14:24:29;;;;;;;12.88;8.55;;;;;;;;;;4778359;29;20455;-85
2021/09/05 14:26:57;;;;;;;12.32;8.45;;;;;;;;;;4800340;29;20066;-84
2021/09/05 14:29:29;;;;;;;12.95;8.88;;;;;;;;;;4797184;29;20103;-85
2021/09/05 14:32:02;;;;;;;12.30;8.80;;;;;;;;;;4786968;29;20395;-85
2021/09/05 14:50:40;;;;;;;12.02;8.38;;;;;;;;;;4787246;29;20045;-85
2021/09/05 14:55:54;;;;;;;12.60;8.88;;;;;;;;;;4829077;29;20022;-85
2021/09/05 14:58:21;;;;;;;10.75;8.25;;;;;;;;;;4817249;29;20046;-85
2021/09/05 15:00:52;;;;;;;12.88;8.95;;;;;;;;;;4782380;29;20064;-85
2021/09/05 15:11:10;;;;;;;10.95;8.20;;;;;;;;;;4787958;29;20099;-86
2021/09/05 15:13:36;;;;;;;12.02;8.35;;;;;;;;;;4779955;29;20068;-85
2021/09/05 15:16:03;;;;;;;13.95;9.05;;;;;;;;;;4783487;29;20030;-85
2021/09/05 15:18:29;;;;;;;12.35;8.85;;;;;;;;;;4801560;29;20052;-86
2021/09/05 15:20:55;;;;;;;13.95;8.85;;;;;;;;;;4789628;29;20489;-85
2021/09/05 15:23:24;;;;;;;12.55;7.93;;;;;;;;;;4809557;29;20039;-85
2021/09/05 15:25:49;;;;;;;12.27;8.05;;;;;;;;;;4805574;29;20046;-85
2021/09/05 15:28:35;;;;;;;10.80;7.72;;;;;;;;;;4803051;29;20500;-85